Hilliard, Ohio
Current Conditions -  °F | °C
As of 10:05 AM on Thursday 23 Oct 2014 (Local Time) from KOSU Reporting Station
Haze Haze  
Wind Chill: 39°   Ceiling: 400
Heat Index: 43°   Visibility: 2mi
Dew Point: 40°   Wind: 7mph
Humidity: 89%   Direction: 360°N
Pressure: 30.26"   Gusts: NA
Location:  40.03°N, 83.15°W
Report Text: KOSU 231405Z 36006KT 2SM BR OVC004 06/04 A3026 RMK AO2 T00610044
Loading
Personal Weather Stations






























Interactive Weather Map
Tropical Storm Tracking
New forecast layout! Learn more

10-Day Weather Forecast

Advertisements
Track Severe Weather on mobile